Kezdőlap
METAR-TAF:

METAR-TAF

Repülőterek :

Tahiti, Francia Polinézia

földrajzi szélesség: 17-33S, földrajzi hosszúság: 149-37W, magasság: 2 m

Jelenlegi meteorológiai megfigyelések

A jelentés 38 perccel ezelõtt készült, 07:30 UTC
Különbözõ irányokból fújó szél 3 kt
Hőmérséklet 28°C
Páratartalom 70%
Légköri nyomás 1010 hPa
Látótávolság 10 km, vagy több
Kevés felhő 2300 lábon
Szórványos felhőzet 13000 lábon

METAR: NTAA 230730Z VRB03KT 9999 FEW023 SCT130 28/22 Q1010 NOSIG

Idő: 22:08 (08:08 UTC)

Előrejelzés

A jelentés 3 órával és 8 perccel ezelõtt készült, 05:00 UTC
Az előrejelzés 23-én 06 óra UTC és 24-én 12 óra UTC között érvényes
Különbözõ irányokból fújó szél 5 kt
Látótávolság 10 km, vagy több
Kevés felhő 2300 lábon
Szórványos felhőzet 6000 lábon

TAF: NTAA 230500Z 2306/2412 VRB05KT 9999 FEW023 SCT060

Meteorológiai megfigyelések és előrejelzések több, mint 4000 repülőtéren (METAR és TAF jelentéseket).

A térképen piros és sárga pontok jelzik az elérhető meteorológiai állomásokat.

Mozgassa az egeret a pont fölött, hogy megjelenjen az állomás neve.

Azután kattintson az időjárási megfigyelések és előrejelzések megtekintéséhez.

A térkép megváltoztatása: kattintson a fekete keresztel jelölt zöld gombra ráközelítéshez, a vonallal jelölt zöld gombra távolításhoz, vagy a zöld nyilakra a szomszédos térképek eléréséhez.


METAR-TAF: